Time;durP1;ratioP1;P1;durP2;ratioP2;P2;SDS_P1;SDS_P2;PMS_P1;PMS_P2;Temp;Humidity;BMP_temperature;BMP_pressure;BME280_temperature;BME280_humidity;BME280_pressure;Samples;Min_cycle;Max_cycle;Signal;HPM_P1;HPM_P2
2024/02/13 06:03:06;;;;;;;;;;;;;;;;;;4948596;29;19980;-46
2024/02/13 06:05:32;;;;;;;;;;;;;;;;;;4949993;28;20393;-48
2024/02/13 06:07:58;;;;;;;;;;;;;;;;;;4950814;29;19910;-48
2024/02/13 06:10:27;;;;;;;;;;;;;;;;;;4948712;28;20008;-48
2024/02/13 06:12:55;;;;;;;;;;;;;;;;;;4950324;29;20296;-48
2024/02/13 06:15:21;;;;;;;;;;;;;;;;;;4951201;29;19957;-47
2024/02/13 06:17:47;;;;;;;;;;;;;;;;;;4950959;28;19910;-49
2024/02/13 06:20:14;;;;;;;;;;;;;;;;;;4962300;28;20012;-47
2024/02/13 06:22:40;;;;;;;;;;;;;;;;;;4969194;28;20419;-48
2024/02/13 06:25:08;;;;;;;;;;;;;;;;;;4970336;28;19914;-51
2024/02/13 06:27:34;;;;;;;;;;;;;;;;;;4970453;28;19981;-47
2024/02/13 06:30:00;;;;;;;;;;;;;;;;;;4971096;28;19953;-48
2024/02/13 06:32:26;;;;;;;;;;;;;;;;;;4967421;28;19910;-47
2024/02/13 06:34:55;;;;;;;;;;;;;;;;;;4959521;28;19919;-49
2024/02/13 06:37:21;;;;;;;;;;;;;;;;;;4950996;29;19911;-48
2024/02/13 06:39:47;;;;;;;;;;;;;;;;;;4950865;29;19917;-47
2024/02/13 06:42:13;;;;;;;;;;;;;;;;;;4950980;28;19910;-49
2024/02/13 06:44:39;;;;;;;;;;;;;;;;;;4956947;28;19914;-50
2024/02/13 06:47:08;;;;;;;;;;;;;;;;;;4969029;28;19996;-47
2024/02/13 06:49:34;;;;;;;;;;;;;;;;;;4969907;28;19921;-49
2024/02/13 06:52:00;;;;;;;;;;;;;;;;;;4970787;28;19910;-50
2024/02/13 06:54:26;;;;;;;;;;;;;;;;;;4971321;28;19910;-50
2024/02/13 06:56:51;;;;;;;;;;;;;;;;;;4967247;28;19914;-50
2024/02/13 06:59:18;;;;;;;;;;;;;;;;;;4967318;28;19910;-46
2024/02/13 07:01:44;;;;;;;;;;;;;;;;;;4956077;28;19926;-46
2024/02/13 07:04:10;;;;;;;;;;;;;;;;;;4972723;28;19918;-47
2024/02/13 07:06:36;;;;;;;;;;;;;;;;;;4973830;28;20459;-49
2024/02/13 07:09:03;;;;;;;;;;;;;;;;;;4962387;28;19918;-49
2024/02/13 07:11:29;;;;;;;;;;;;;;;;;;4949510;28;19915;-49
2024/02/13 07:13:55;;;;;;;;;;;;;;;;;;4966719;28;19914;-50
2024/02/13 07:16:21;;;;;;;;;;;;;;;;;;4950279;29;19994;-47
2024/02/13 07:18:47;;;;;;;;;;;;;;;;;;4935233;29;20042;-50
2024/02/13 07:21:13;;;;;;;;;;;;;;;;;;4944251;29;19915;-49
2024/02/13 07:23:39;;;;;;;;;;;;;;;;;;4954242;29;19922;-50
2024/02/13 07:26:05;;;;;;;;;;;;;;;;;;4954063;29;20404;-50
2024/02/13 07:28:31;;;;;;;;;;;;;;;;;;4953404;29;19914;-49
2024/02/13 07:30:57;;;;;;;;;;;;;;;;;;4943932;29;19915;-49
2024/02/13 07:33:22;;;;;;;;;;;;;;;;;;4953623;28;19914;-50
2024/02/13 07:35:48;;;;;;;;;;;;;;;;;;4957519;28;19914;-48
2024/02/13 07:38:14;;;;;;;;;;;;;;;;;;4965745;28;20296;-50
2024/02/13 07:40:40;;;;;;;;;;;;;;;;;;4954514;28;19918;-50
2024/02/13 07:43:06;;;;;;;;;;;;;;;;;;4972962;28;20356;-49
2024/02/13 07:45:32;;;;;;;;;;;;;;;;;;4971821;28;19949;-47
2024/02/13 07:48:01;;;;;;;;;;;;;;;;;;4955105;28;19921;-47
2024/02/13 07:50:27;;;;;;;;;;;;;;;;;;4953843;28;19925;-50
2024/02/13 07:52:53;;;;;;;;;;;;;;;;;;4956262;28;19918;-47
2024/02/13 07:55:19;;;;;;;;;;;;;;;;;;4953067;28;19911;-46
2024/02/13 07:57:50;;;;;;;;;;;;;;;;;;4952339;28;19929;-47
2024/02/13 08:00:15;;;;;;;;;;;;;;;;;;4952118;29;20261;-46
2024/02/13 08:02:41;;;;;;;;;;;;;;;;;;4955705;28;19925;-47
2024/02/13 08:05:07;;;;;;;;;;;;;;;;;;4963640;28;19946;-47
2024/02/13 08:07:33;;;;;;;;;;;;;;;;;;4954651;29;20289;-48
2024/02/13 08:09:59;;;;;;;;;;;;;;;;;;4963571;28;20012;-47
2024/02/13 08:12:25;;;;;;;;;;;;;;;;;;4953911;28;20009;-49
2024/02/13 08:14:51;;;;;;;;;;;;;;;;;;4962946;28;20423;-49
2024/02/13 08:17:17;;;;;;;;;;;;;;;;;;4953828;29;20381;-49
2024/02/13 08:19:43;;;;;;;;;;;;;;;;;;4946003;28;20302;-50
2024/02/13 08:22:10;;;;;;;;;;;;;;;;;;4948189;29;19915;-49
2024/02/13 08:24:36;;;;;;;;;;;;;;;;;;4958834;28;20297;-46
2024/02/13 08:27:02;;;;;;;;;;;;;;;;;;4961899;28;19914;-47
2024/02/13 08:29:28;;;;;;;;;;;;;;;;;;4969069;28;19921;-50
2024/02/13 08:31:54;;;;;;;;;;;;;;;;;;4972920;28;19961;-49
2024/02/13 08:34:21;;;;;;;;;;;;;;;;;;4966523;28;19915;-49
2024/02/13 08:36:48;;;;;;;;;;;;;;;;;;4953267;29;19911;-49
2024/02/13 08:39:14;;;;;;;;;;;;;;;;;;4952809;29;19938;-49
2024/02/13 08:41:40;;;;;;;;;;;;;;;;;;4952703;29;19910;-49
2024/02/13 08:44:07;;;;;;;;;;;;;;;;;;4952756;28;20021;-49
2024/02/13 08:46:33;;;;;;;;;;;;;;;;;;4953635;28;19968;-49
2024/02/13 08:49:00;;;;;;;;;;;;;;;;;;4952219;29;19958;-50
2024/02/13 08:51:27;;;;;;;;;;;;;;;;;;4952792;29;19942;-47
2024/02/13 08:53:53;;;;;;;;;;;;;;;;;;4952155;29;19917;-47
2024/02/13 08:56:19;;;;;;;;;;;;;;;;;;4952398;29;19914;-47
2024/02/13 08:58:45;;;;;;;;;;;;;;;;;;4952629;29;19914;-50
2024/02/13 09:01:12;;;;;;;;;;;;;;;;;;4951656;29;19919;-50
2024/02/13 09:03:38;;;;;;;;;;;;;;;;;;4953447;28;20341;-48
2024/02/13 09:06:04;;;;;;;;;;;;;;;;;;4951514;28;19922;-48
2024/02/13 09:08:30;;;;;;;;;;;;;;;;;;4946467;28;20301;-46
2024/02/13 09:10:56;;;;;;;;;;;;;;;;;;4950828;28;19914;-47
2024/02/13 09:13:22;;;;;;;;;;;;;;;;;;4952430;28;19910;-48
2024/02/13 09:15:48;;;;;;;;;;;;;;;;;;4952307;28;19971;-46
2024/02/13 09:18:14;;;;;;;;;;;;;;;;;;4951993;29;20304;-46
2024/02/13 09:20:40;;;;;;;;;;;;;;;;;;4952289;29;19910;-44
2024/02/13 09:23:06;;;;;;;;;;;;;;;;;;4952629;29;19938;-49
2024/02/13 09:25:33;;;;;;;;;;;;;;;;;;4951932;29;19914;-49
2024/02/13 09:27:58;;;;;;;;;;;;;;;;;;4952251;29;19966;-49
2024/02/13 09:30:24;;;;;;;;;;;;;;;;;;4951801;29;20374;-50
2024/02/13 09:32:50;;;;;;;;;;;;;;;;;;4952208;29;19946;-47
2024/02/13 09:35:17;;;;;;;;;;;;;;;;;;4953019;28;19914;-47
2024/02/13 09:37:44;;;;;;;;;;;;;;;;;;4951967;28;19953;-47
2024/02/13 09:40:13;;;;;;;;;;;;;;;;;;4951574;29;19918;-47
2024/02/13 09:42:39;;;;;;;;;;;;;;;;;;4952516;28;19910;-49
2024/02/13 09:45:06;;;;;;;;;;;;;;;;;;4952589;28;20300;-46
2024/02/13 09:47:32;;;;;;;;;;;;;;;;;;4951787;28;19910;-48
2024/02/13 09:49:58;;;;;;;;;;;;;;;;;;4951592;29;20301;-50
2024/02/13 09:52:24;;;;;;;;;;;;;;;;;;4950343;28;19914;-47
2024/02/13 09:54:50;;;;;;;;;;;;;;;;;;4951769;29;20329;-46
2024/02/13 09:57:17;;;;;;;;;;;;;;;;;;4951538;29;19918;-46
2024/02/13 09:59:43;;;;;;;;;;;;;;;;;;4951494;29;20304;-47
2024/02/13 10:02:08;;;;;;;;;;;;;;;;;;4952178;29;19918;-47
2024/02/13 10:04:34;;;;;;;;;;;;;;;;;;4950264;29;19922;-48
2024/02/13 10:07:01;;;;;;;;;;;;;;;;;;4951309;29;19910;-46
2024/02/13 10:09:29;;;;;;;;;;;;;;;;;;4951088;29;19910;-45
2024/02/13 10:11:54;;;;;;;;;;;;;;;;;;4951164;28;19954;-47
2024/02/13 10:14:23;;;;;;;;;;;;;;;;;;4951292;29;19910;-44
2024/02/13 10:16:50;;;;;;;;;;;;;;;;;;4951100;29;19946;-47
2024/02/13 10:19:16;;;;;;;;;;;;;;;;;;4950325;29;19914;-45
2024/02/13 10:21:42;;;;;;;;;;;;;;;;;;4951633;29;20285;-45
2024/02/13 10:24:09;;;;;;;;;;;;;;;;;;4951752;29;20610;-48
2024/02/13 10:26:34;;;;;;;;;;;;;;;;;;4951049;29;19910;-47
2024/02/13 10:29:00;;;;;;;;;;;;;;;;;;4950416;29;19917;-50
2024/02/13 10:31:26;;;;;;;;;;;;;;;;;;4950963;29;20415;-47
2024/02/13 10:33:54;;;;;;;;;;;;;;;;;;4950947;29;19910;-47
2024/02/13 10:36:20;;;;;;;;;;;;;;;;;;4950869;29;19910;-48
2024/02/13 10:38:46;;;;;;;;;;;;;;;;;;4950909;29;19921;-47
2024/02/13 10:41:19;;;;;;;;;;;;;;;;;;4951717;29;20002;-49
2024/02/13 10:43:45;;;;;;;;;;;;;;;;;;4950769;28;19970;-49
2024/02/13 10:46:11;;;;;;;;;;;;;;;;;;4951321;29;19915;-45
2024/02/13 10:48:37;;;;;;;;;;;;;;;;;;4950568;29;20009;-45
2024/02/13 10:51:03;;;;;;;;;;;;;;;;;;4950758;29;19937;-45
2024/02/13 10:53:29;;;;;;;;;;;;;;;;;;4950274;29;20378;-46
2024/02/13 10:55:55;;;;;;;;;;;;;;;;;;4950345;29;19917;-49
2024/02/13 10:58:21;;;;;;;;;;;;;;;;;;4950616;29;19934;-48
2024/02/13 11:00:48;;;;;;;;;;;;;;;;;;4950703;29;20110;-50
2024/02/13 11:03:14;;;;;;;;;;;;;;;;;;4951407;29;19919;-50
2024/02/13 11:05:40;;;;;;;;;;;;;;;;;;4950529;29;19921;-50
2024/02/13 11:08:06;;;;;;;;;;;;;;;;;;4949453;28;19914;-49
2024/02/13 11:10:35;;;;;;;;;;;;;;;;;;4949568;29;20357;-47
2024/02/13 11:13:01;;;;;;;;;;;;;;;;;;4949811;29;19911;-50
2024/02/13 11:15:29;;;;;;;;;;;;;;;;;;4949810;29;19910;-47
2024/02/13 11:17:55;;;;;;;;;;;;;;;;;;4949330;28;19910;-47
2024/02/13 11:20:24;;;;;;;;;;;;;;;;;;4949289;29;20346;-50
2024/02/13 11:22:49;;;;;;;;;;;;;;;;;;4949343;29;19917;-50
2024/02/13 11:25:15;;;;;;;;;;;;;;;;;;4950088;29;20373;-47
2024/02/13 11:27:41;;;;;;;;;;;;;;;;;;4948725;29;19910;-50
2024/02/13 11:30:07;;;;;;;;;;;;;;;;;;4949404;29;19958;-48
2024/02/13 11:32:33;;;;;;;;;;;;;;;;;;4949210;28;19997;-50
2024/02/13 11:34:59;;;;;;;;;;;;;;;;;;4949387;29;20442;-51
2024/02/13 11:37:28;;;;;;;;;;;;;;;;;;4949309;29;20420;-49
2024/02/13 11:39:56;;;;;;;;;;;;;;;;;;4950208;28;19914;-50
2024/02/13 11:42:22;;;;;;;;;;;;;;;;;;4952662;29;19944;-48
2024/02/13 11:44:51;;;;;;;;;;;;;;;;;;4952973;29;19937;-49
2024/02/13 11:47:19;;;;;;;;;;;;;;;;;;4952703;29;19914;-46
2024/02/13 11:49:45;;;;;;;;;;;;;;;;;;4953101;28;19918;-48
2024/02/13 11:52:11;;;;;;;;;;;;;;;;;;4952572;29;19918;-47
2024/02/13 11:54:38;;;;;;;;;;;;;;;;;;4952649;29;19944;-49
2024/02/13 11:57:04;;;;;;;;;;;;;;;;;;4952550;29;19914;-49
2024/02/13 11:59:30;;;;;;;;;;;;;;;;;;4952860;29;19911;-49
2024/02/13 12:01:56;;;;;;;;;;;;;;;;;;4952534;29;19918;-47
2024/02/13 12:04:22;;;;;;;;;;;;;;;;;;4952336;29;19915;-51
2024/02/13 12:06:48;;;;;;;;;;;;;;;;;;4953018;29;19965;-50
2024/02/13 12:09:17;;;;;;;;;;;;;;;;;;4952735;29;20385;-49
2024/02/13 12:11:43;;;;;;;;;;;;;;;;;;4951295;29;19921;-50
2024/02/13 12:14:09;;;;;;;;;;;;;;;;;;4952389;28;19914;-47
2024/02/13 12:16:35;;;;;;;;;;;;;;;;;;4952118;29;20293;-50
2024/02/13 12:19:01;;;;;;;;;;;;;;;;;;4952089;29;20274;-50
2024/02/13 12:21:27;;;;;;;;;;;;;;;;;;4952457;29;19916;-47
2024/02/13 12:23:53;;;;;;;;;;;;;;;;;;4952017;29;19910;-49
2024/02/13 12:26:19;;;;;;;;;;;;;;;;;;4950630;29;20283;-49
2024/02/13 12:28:45;;;;;;;;;;;;;;;;;;4952200;29;19921;-51
2024/02/13 12:31:11;;;;;;;;;;;;;;;;;;4952317;29;19981;-47
2024/02/13 12:33:39;;;;;;;;;;;;;;;;;;4951830;29;19910;-48
2024/02/13 12:36:18;;;;;;;;;;;;;;;;;;4951979;29;19911;-49
2024/02/13 12:38:44;;;;;;;;;;;;;;;;;;4952298;28;19958;-51
2024/02/13 12:41:10;;;;;;;;;;;;;;;;;;4951814;29;20005;-50
2024/02/13 12:43:36;;;;;;;;;;;;;;;;;;4951551;28;19917;-51
2024/02/13 12:46:02;;;;;;;;;;;;;;;;;;4951648;29;19921;-50
2024/02/13 12:48:29;;;;;;;;;;;;;;;;;;4951479;28;20417;-50
2024/02/13 12:50:56;;;;;;;;;;;;;;;;;;4951186;28;19914;-47
2024/02/13 12:53:25;;;;;;;;;;;;;;;;;;4951262;28;19958;-49
2024/02/13 12:55:52;;;;;;;;;;;;;;;;;;4951507;28;19939;-48
2024/02/13 12:58:18;;;;;;;;;;;;;;;;;;4951987;29;19993;-49
2024/02/13 13:00:47;;;;;;;;;;;;;;;;;;4951921;28;20621;-50
2024/02/13 13:03:14;;;;;;;;;;;;;;;;;;4951211;29;19910;-51
2024/02/13 13:05:43;;;;;;;;;;;;;;;;;;4951131;29;19918;-47
2024/02/13 13:08:11;;;;;;;;;;;;;;;;;;4951006;29;19914;-48
2024/02/13 13:10:37;;;;;;;;;;;;;;;;;;4951093;29;20344;-51
2024/02/13 13:13:06;;;;;;;;;;;;;;;;;;4951134;29;19917;-49
2024/02/13 13:15:32;;;;;;;;;;;;;;;;;;4951013;29;19958;-48
2024/02/13 13:18:01;;;;;;;;;;;;;;;;;;4950487;29;19945;-52
2024/02/13 13:20:28;;;;;;;;;;;;;;;;;;4950744;29;19953;-49
2024/02/13 13:22:54;;;;;;;;;;;;;;;;;;4950845;29;19914;-50
2024/02/13 13:25:31;;;;;;;;;;;;;;;;;;4950956;29;19922;-48
2024/02/13 13:28:05;;;;;;;;;;;;;;;;;;4951037;29;19910;-47
2024/02/13 13:30:31;;;;;;;;;;;;;;;;;;4950883;29;19911;-50
2024/02/13 13:32:57;;;;;;;;;;;;;;;;;;4950473;29;19917;-51
2024/02/13 13:35:26;;;;;;;;;;;;;;;;;;4950615;29;19921;-50
2024/02/13 13:37:52;;;;;;;;;;;;;;;;;;4950753;29;20362;-50
2024/02/13 13:40:18;;;;;;;;;;;;;;;;;;4951179;29;19917;-48
2024/02/13 13:42:44;;;;;;;;;;;;;;;;;;4951189;29;19919;-49
2024/02/13 13:45:10;;;;;;;;;;;;;;;;;;4950423;29;19915;-50
2024/02/13 13:47:36;;;;;;;;;;;;;;;;;;4950430;29;19910;-49
2024/02/13 13:50:01;;;;;;;;;;;;;;;;;;4950379;29;19973;-47
2024/02/13 13:52:27;;;;;;;;;;;;;;;;;;4949434;29;19917;-51
2024/02/13 13:54:53;;;;;;;;;;;;;;;;;;4950455;29;20408;-47
2024/02/13 13:57:19;;;;;;;;;;;;;;;;;;4950848;28;19914;-51
2024/02/13 13:59:45;;;;;;;;;;;;;;;;;;4950860;29;20389;-50
2024/02/13 14:02:11;;;;;;;;;;;;;;;;;;4949834;28;19918;-49
2024/02/13 14:04:38;;;;;;;;;;;;;;;;;;4949706;29;19914;-50
2024/02/13 14:07:05;;;;;;;;;;;;;;;;;;4950429;29;20420;-49
2024/02/13 14:09:31;;;;;;;;;;;;;;;;;;4950007;29;19906;-48
2024/02/13 14:11:58;;;;;;;;;;;;;;;;;;4950255;29;19911;-51
2024/02/13 14:14:24;;;;;;;;;;;;;;;;;;4949880;29;19918;-50
2024/02/13 14:16:50;;;;;;;;;;;;;;;;;;4950175;29;19911;-48
2024/02/13 14:19:16;;;;;;;;;;;;;;;;;;4950726;29;19914;-47
2024/02/13 14:21:42;;;;;;;;;;;;;;;;;;4949934;29;19911;-48
2024/02/13 14:24:11;;;;;;;;;;;;;;;;;;4949927;29;20350;-49
2024/02/13 14:26:37;;;;;;;;;;;;;;;;;;4950040;29;20001;-46
2024/02/13 14:29:04;;;;;;;;;;;;;;;;;;4949614;29;19993;-45
2024/02/13 14:31:30;;;;;;;;;;;;;;;;;;4949947;29;19950;-48
2024/02/13 14:33:56;;;;;;;;;;;;;;;;;;4949781;29;19910;-47
2024/02/13 14:36:23;;;;;;;;;;;;;;;;;;4949965;29;19917;-49
2024/02/13 14:38:50;;;;;;;;;;;;;;;;;;4949800;29;19948;-48
2024/02/13 14:41:16;;;;;;;;;;;;;;;;;;4950501;29;19910;-47
2024/02/13 14:43:42;;;;;;;;;;;;;;;;;;4949822;29;19914;-47
2024/02/13 14:46:08;;;;;;;;;;;;;;;;;;4949752;29;19927;-48
2024/02/13 14:48:34;;;;;;;;;;;;;;;;;;4949984;29;20409;-47
2024/02/13 14:51:00;;;;;;;;;;;;;;;;;;4949843;29;19907;-49
2024/02/13 14:53:26;;;;;;;;;;;;;;;;;;4949966;29;19957;-46
2024/02/13 14:55:52;;;;;;;;;;;;;;;;;;4949825;29;19945;-46
2024/02/13 14:58:22;;;;;;;;;;;;;;;;;;4949638;29;19988;-44
2024/02/13 15:00:52;;;;;;;;;;;;;;;;;;4949715;29;19915;-46
2024/02/13 15:03:20;;;;;;;;;;;;;;;;;;4950019;29;19915;-44
2024/02/13 15:05:46;;;;;;;;;;;;;;;;;;4950426;29;19969;-48
2024/02/13 15:08:15;;;;;;;;;;;;;;;;;;4949805;29;20417;-49
2024/02/13 15:10:43;;;;;;;;;;;;;;;;;;4949593;29;19910;-48
2024/02/13 15:13:11;;;;;;;;;;;;;;;;;;4949366;29;19910;-45
2024/02/13 15:15:37;;;;;;;;;;;;;;;;;;4952777;28;19986;-48
2024/02/13 15:18:06;;;;;;;;;;;;;;;;;;4953416;29;19966;-48
2024/02/13 15:20:33;;;;;;;;;;;;;;;;;;4953222;29;19910;-49
2024/02/13 15:22:59;;;;;;;;;;;;;;;;;;4953406;29;19910;-45
2024/02/13 15:25:25;;;;;;;;;;;;;;;;;;4952817;29;19921;-47
2024/02/13 15:27:51;;;;;;;;;;;;;;;;;;4952984;29;19911;-47
2024/02/13 15:30:17;;;;;;;;;;;;;;;;;;4953335;29;19910;-48
2024/02/13 15:32:43;;;;;;;;;;;;;;;;;;4953520;29;19910;-49
2024/02/13 15:35:09;;;;;;;;;;;;;;;;;;4953018;29;19921;-45
2024/02/13 15:48:34;;;;;;;;;;;;;;;;;;4952665;29;19925;-48
2024/02/13 15:51:02;;;;;;;;;;;;;;;;;;4952699;29;19911;-46
2024/02/13 15:53:29;;;;;;;;;;;;;;;;;;4952650;29;19915;-45
2024/02/13 15:55:56;;;;;;;;;;;;;;;;;;4952448;29;19953;-45
2024/02/13 15:58:22;;;;;;;;;;;;;;;;;;4952426;29;20312;-47
2024/02/13 16:00:48;;;;;;;;;;;;;;;;;;4952700;29;19938;-45
2024/02/13 16:03:14;;;;;;;;;;;;;;;;;;4953112;29;20326;-45
2024/02/13 16:05:40;;;;;;;;;;;;;;;;;;4952146;29;20374;-49
2024/02/13 16:08:07;;;;;;;;;;;;;;;;;;4952495;29;19965;-48
2024/02/13 16:10:33;;;;;;;;;;;;;;;;;;4951971;29;20408;-47
2024/02/13 16:13:00;;;;;;;;;;;;;;;;;;4952480;29;19910;-48
2024/02/13 16:15:26;;;;;;;;;;;;;;;;;;4952171;29;19911;-46
2024/02/13 16:17:52;;;;;;;;;;;;;;;;;;4952297;29;19917;-48
2024/02/13 16:20:18;;;;;;;;;;;;;;;;;;4952501;28;19953;-46
2024/02/13 16:22:44;;;;;;;;;;;;;;;;;;4952591;29;20215;-48
2024/02/13 16:25:12;;;;;;;;;;;;;;;;;;4951670;28;20428;-49
2024/02/13 16:27:38;;;;;;;;;;;;;;;;;;4951703;28;19914;-48
2024/02/13 16:30:04;;;;;;;;;;;;;;;;;;4951447;29;19911;-46
2024/02/13 16:32:30;;;;;;;;;;;;;;;;;;4951753;29;19915;-49
2024/02/13 16:34:56;;;;;;;;;;;;;;;;;;4951940;29;20305;-46
2024/02/13 16:37:23;;;;;;;;;;;;;;;;;;4951831;29;19911;-45
2024/02/13 16:39:49;;;;;;;;;;;;;;;;;;4951603;29;19938;-48
2024/02/13 16:42:14;;;;;;;;;;;;;;;;;;4952534;28;19911;-46
2024/02/13 16:44:41;;;;;;;;;;;;;;;;;;4952076;29;20451;-48
2024/02/13 16:47:07;;;;;;;;;;;;;;;;;;4951761;28;20002;-45
2024/02/13 16:49:33;;;;;;;;;;;;;;;;;;4951803;29;20013;-46
2024/02/13 16:51:59;;;;;;;;;;;;;;;;;;4951905;29;19914;-48
2024/02/13 16:54:25;;;;;;;;;;;;;;;;;;4951328;29;19917;-46
2024/02/13 16:56:52;;;;;;;;;;;;;;;;;;4951407;29;19965;-48
2024/02/13 16:59:18;;;;;;;;;;;;;;;;;;4951939;28;19910;-45
2024/02/13 17:01:44;;;;;;;;;;;;;;;;;;4951746;29;20412;-48
2024/02/13 17:04:10;;;;;;;;;;;;;;;;;;4951577;29;19941;-49
2024/02/13 17:06:35;;;;;;;;;;;;;;;;;;4951114;29;19942;-45
2024/02/13 17:09:02;;;;;;;;;;;;;;;;;;4951089;29;20293;-46
2024/02/13 17:11:28;;;;;;;;;;;;;;;;;;4951061;29;19911;-45
2024/02/13 17:13:55;;;;;;;;;;;;;;;;;;4951276;29;20006;-49
2024/02/13 17:16:21;;;;;;;;;;;;;;;;;;4950869;29;19911;-47
2024/02/13 17:18:47;;;;;;;;;;;;;;;;;;4951641;29;19941;-45
2024/02/13 17:21:15;;;;;;;;;;;;;;;;;;4951684;29;19914;-48
2024/02/13 17:23:41;;;;;;;;;;;;;;;;;;4950958;29;19911;-45
2024/02/13 17:26:08;;;;;;;;;;;;;;;;;;4950557;28;19922;-46
2024/02/13 17:28:33;;;;;;;;;;;;;;;;;;4950944;29;19914;-47
2024/02/13 17:30:59;;;;;;;;;;;;;;;;;;4950738;29;19910;-48
2024/02/13 17:33:25;;;;;;;;;;;;;;;;;;4951026;29;19910;-46
2024/02/13 17:35:51;;;;;;;;;;;;;;;;;;4950617;29;19911;-49
2024/02/13 17:38:17;;;;;;;;;;;;;;;;;;4951223;28;19914;-45
2024/02/13 17:40:43;;;;;;;;;;;;;;;;;;4951090;29;19941;-45
2024/02/13 17:43:14;;;;;;;;;;;;;;;;;;4950741;29;19917;-46
2024/02/13 17:45:40;;;;;;;;;;;;;;;;;;4950466;29;20278;-48
2024/02/13 17:48:07;;;;;;;;;;;;;;;;;;4950620;29;20008;-46
2024/02/13 17:50:33;;;;;;;;;;;;;;;;;;4950282;29;19911;-48
2024/02/13 17:52:59;;;;;;;;;;;;;;;;;;4950416;29;20376;-46
2024/02/13 17:55:24;;;;;;;;;;;;;;;;;;4950277;29;19965;-45
2024/02/13 17:57:50;;;;;;;;;;;;;;;;;;4950386;29;19918;-48
2024/02/13 18:00:16;;;;;;;;;;;;;;;;;;4950843;29;19941;-47
2024/02/13 18:02:42;;;;;;;;;;;;;;;;;;4950348;28;19922;-47
2024/02/13 18:05:08;;;;;;;;;;;;;;;;;;4950388;29;19961;-46
2024/02/13 18:07:36;;;;;;;;;;;;;;;;;;4949338;29;21576;-46
2024/02/13 18:10:02;;;;;;;;;;;;;;;;;;4950143;29;19965;-48
2024/02/13 18:12:28;;;;;;;;;;;;;;;;;;4950408;28;19910;-48
2024/02/13 18:14:54;;;;;;;;;;;;;;;;;;4950290;29;19910;-45
2024/02/13 18:17:20;;;;;;;;;;;;;;;;;;4950026;29;19965;-47
2024/02/13 18:19:47;;;;;;;;;;;;;;;;;;4950673;29;19974;-48
2024/02/13 18:22:12;;;;;;;;;;;;;;;;;;4949824;29;19916;-46
2024/02/13 18:24:41;;;;;;;;;;;;;;;;;;4949946;29;19923;-47
2024/02/13 18:27:10;;;;;;;;;;;;;;;;;;4949669;29;19918;-47
2024/02/13 18:29:36;;;;;;;;;;;;;;;;;;4950060;29;19972;-46
2024/02/13 18:32:02;;;;;;;;;;;;;;;;;;4950231;29;19911;-45
2024/02/13 18:34:28;;;;;;;;;;;;;;;;;;4949839;29;19917;-49
2024/02/13 18:36:54;;;;;;;;;;;;;;;;;;4949692;29;19914;-46
2024/02/13 18:39:20;;;;;;;;;;;;;;;;;;4949833;29;19917;-47
2024/02/13 18:41:47;;;;;;;;;;;;;;;;;;4950400;28;19910;-47
2024/02/13 18:44:13;;;;;;;;;;;;;;;;;;4950653;29;19914;-46
2024/02/13 18:46:42;;;;;;;;;;;;;;;;;;4949525;29;19921;-47
2024/02/13 18:49:08;;;;;;;;;;;;;;;;;;4950915;28;20405;-46
2024/02/13 18:51:34;;;;;;;;;;;;;;;;;;4953571;29;19911;-45
2024/02/13 18:54:01;;;;;;;;;;;;;;;;;;4953806;29;20374;-48
2024/02/13 18:56:32;;;;;;;;;;;;;;;;;;4953767;29;19915;-47
2024/02/13 18:58:58;;;;;;;;;;;;;;;;;;4953476;29;19993;-47
2024/02/13 19:01:24;;;;;;;;;;;;;;;;;;4953461;29;19923;-45
2024/02/13 19:03:49;;;;;;;;;;;;;;;;;;4953641;29;20001;-45
2024/02/13 19:06:16;;;;;;;;;;;;;;;;;;4954349;29;20266;-47
2024/02/13 19:08:42;;;;;;;;;;;;;;;;;;4953452;29;19966;-45
2024/02/13 19:11:08;;;;;;;;;;;;;;;;;;4953153;29;20393;-48
2024/02/13 19:13:34;;;;;;;;;;;;;;;;;;4953496;29;19921;-47
2024/02/13 19:16:00;;;;;;;;;;;;;;;;;;4953395;29;19965;-45
2024/02/13 19:18:26;;;;;;;;;;;;;;;;;;4953196;29;19917;-48
2024/02/13 19:20:54;;;;;;;;;;;;;;;;;;4953147;28;19911;-49
2024/02/13 19:23:21;;;;;;;;;;;;;;;;;;4952927;28;20341;-46
2024/02/13 19:25:47;;;;;;;;;;;;;;;;;;4953748;29;19921;-49
2024/02/13 19:28:13;;;;;;;;;;;;;;;;;;4958014;28;19914;-48
2024/02/13 19:30:40;;;;;;;;;;;;;;;;;;4956465;28;19918;-46
2024/02/13 19:33:06;;;;;;;;;;;;;;;;;;4964739;28;19914;-48
2024/02/13 19:35:33;;;;;;;;;;;;;;;;;;4971296;28;19956;-48
2024/02/13 19:37:59;;;;;;;;;;;;;;;;;;4958232;28;19926;-47
2024/02/13 19:40:25;;;;;;;;;;;;;;;;;;4960151;28;19914;-49
2024/02/13 19:42:51;;;;;;;;;;;;;;;;;;4958421;28;19918;-49
2024/02/13 19:45:17;;;;;;;;;;;;;;;;;;4950604;29;19954;-47
2024/02/13 19:47:42;;;;;;;;;;;;;;;;;;4951371;29;19910;-49
2024/02/13 19:50:08;;;;;;;;;;;;;;;;;;4950483;29;20361;-49
2024/02/13 19:52:36;;;;;;;;;;;;;;;;;;4948457;29;19934;-48
2024/02/13 19:55:02;;;;;;;;;;;;;;;;;;4944615;28;19914;-50
2024/02/13 19:57:28;;;;;;;;;;;;;;;;;;4949413;29;20196;-48
2024/02/13 19:59:54;;;;;;;;;;;;;;;;;;4947842;28;19946;-48
2024/02/13 20:02:20;;;;;;;;;;;;;;;;;;4948872;28;19965;-46
2024/02/13 20:04:46;;;;;;;;;;;;;;;;;;4953694;28;19925;-47
2024/02/13 20:07:13;;;;;;;;;;;;;;;;;;4949831;28;19925;-49
2024/02/13 20:09:40;;;;;;;;;;;;;;;;;;4961239;28;19921;-46
2024/02/13 20:12:07;;;;;;;;;;;;;;;;;;4966132;28;19923;-46
2024/02/13 20:14:33;;;;;;;;;;;;;;;;;;4949936;28;20001;-46
2024/02/13 20:16:59;;;;;;;;;;;;;;;;;;4950159;28;20013;-48
2024/02/13 20:19:25;;;;;;;;;;;;;;;;;;4949602;28;20386;-46
2024/02/13 20:21:51;;;;;;;;;;;;;;;;;;4950646;28;19914;-50
2024/02/13 20:24:17;;;;;;;;;;;;;;;;;;4950548;28;20014;-48
2024/02/13 20:26:44;;;;;;;;;;;;;;;;;;4953461;28;19930;-46
2024/02/13 20:29:10;;;;;;;;;;;;;;;;;;4944919;29;19915;-49
2024/02/13 20:31:36;;;;;;;;;;;;;;;;;;4963580;28;19910;-46
2024/02/13 20:34:02;;;;;;;;;;;;;;;;;;4949882;29;20242;-50
2024/02/13 20:36:29;;;;;;;;;;;;;;;;;;4949516;29;19921;-47
2024/02/13 20:38:55;;;;;;;;;;;;;;;;;;4949493;29;19921;-49
2024/02/13 20:41:21;;;;;;;;;;;;;;;;;;4962838;28;20016;-48
2024/02/13 20:43:46;;;;;;;;;;;;;;;;;;4957228;28;19989;-47
2024/02/13 20:46:15;;;;;;;;;;;;;;;;;;4949355;29;20029;-50
2024/02/13 20:48:41;;;;;;;;;;;;;;;;;;4949483;28;20369;-48
2024/02/13 20:51:07;;;;;;;;;;;;;;;;;;4954352;28;20009;-47
2024/02/13 20:53:34;;;;;;;;;;;;;;;;;;4932192;29;19965;-45
2024/02/13 20:56:01;;;;;;;;;;;;;;;;;;4949272;29;20336;-48
2024/02/13 20:58:27;;;;;;;;;;;;;;;;;;4949518;29;19926;-47
2024/02/13 21:00:55;;;;;;;;;;;;;;;;;;4951785;28;19990;-47
2024/02/13 21:03:21;;;;;;;;;;;;;;;;;;4969670;28;19910;-47
2024/02/13 21:05:47;;;;;;;;;;;;;;;;;;4944750;28;19981;-49
2024/02/13 21:08:13;;;;;;;;;;;;;;;;;;4948613;29;19926;-47
2024/02/13 21:10:39;;;;;;;;;;;;;;;;;;4968035;28;19921;-47
2024/02/13 21:13:05;;;;;;;;;;;;;;;;;;4969128;28;19911;-48
2024/02/13 21:15:32;;;;;;;;;;;;;;;;;;4951452;28;19914;-49
2024/02/13 21:17:58;;;;;;;;;;;;;;;;;;4947720;28;19918;-48
2024/02/13 21:20:29;;;;;;;;;;;;;;;;;;4949080;29;19977;-46
2024/02/13 21:25:40;;;;;;;;;;;;;;;;;;4948367;29;19977;-49
2024/02/13 21:28:06;;;;;;;;;;;;;;;;;;4930866;29;19953;-46
2024/02/13 21:30:32;;;;;;;;;;;;;;;;;;4930505;29;20270;-50
2024/02/13 21:32:57;;;;;;;;;;;;;;;;;;4948813;29;19914;-47
2024/02/13 21:35:25;;;;;;;;;;;;;;;;;;4948905;29;19926;-48
2024/02/13 21:37:51;;;;;;;;;;;;;;;;;;4949135;29;19980;-47
2024/02/13 21:40:17;;;;;;;;;;;;;;;;;;4950570;28;19953;-47
2024/02/13 21:42:44;;;;;;;;;;;;;;;;;;4950934;28;19941;-47
2024/02/13 21:45:10;;;;;;;;;;;;;;;;;;4949391;28;19915;-47
2024/02/13 21:47:40;;;;;;;;;;;;;;;;;;4951434;28;19933;-48
2024/02/13 21:50:08;;;;;;;;;;;;;;;;;;4950067;28;19958;-47
2024/02/13 21:52:33;;;;;;;;;;;;;;;;;;4948692;29;19953;-47
2024/02/13 21:54:59;;;;;;;;;;;;;;;;;;4948070;29;19970;-49
2024/02/13 21:57:25;;;;;;;;;;;;;;;;;;4948464;29;19984;-48
2024/02/13 21:59:52;;;;;;;;;;;;;;;;;;4949110;29;19917;-49
2024/02/13 22:02:18;;;;;;;;;;;;;;;;;;4948778;29;19925;-45
2024/02/13 22:04:44;;;;;;;;;;;;;;;;;;4948495;29;19927;-47
2024/02/13 22:07:09;;;;;;;;;;;;;;;;;;4962571;28;20404;-50
2024/02/13 22:09:37;;;;;;;;;;;;;;;;;;4967935;28;19965;-48
2024/02/13 22:12:02;;;;;;;;;;;;;;;;;;4955588;28;20394;-46
2024/02/13 22:14:28;;;;;;;;;;;;;;;;;;4947106;28;19921;-50
2024/02/13 22:16:56;;;;;;;;;;;;;;;;;;4949147;28;19941;-49
2024/02/13 22:19:21;;;;;;;;;;;;;;;;;;4960666;28;20317;-49
2024/02/13 22:21:47;;;;;;;;;;;;;;;;;;4948169;28;20017;-50
2024/02/13 22:24:13;;;;;;;;;;;;;;;;;;4945935;28;19923;-46
2024/02/13 22:26:39;;;;;;;;;;;;;;;;;;4948865;29;19915;-49
2024/02/13 22:29:05;;;;;;;;;;;;;;;;;;4947959;29;19938;-47
2024/02/13 22:31:33;;;;;;;;;;;;;;;;;;4952592;28;19921;-49
2024/02/13 22:33:59;;;;;;;;;;;;;;;;;;4967992;28;19957;-46
2024/02/13 22:36:25;;;;;;;;;;;;;;;;;;4967924;28;19914;-49
2024/02/13 22:38:51;;;;;;;;;;;;;;;;;;4967975;28;19911;-50
2024/02/13 22:41:16;;;;;;;;;;;;;;;;;;4962512;28;19966;-47
2024/02/13 22:43:42;;;;;;;;;;;;;;;;;;4950528;28;19910;-49
2024/02/13 22:46:08;;;;;;;;;;;;;;;;;;4967676;28;19918;-48
2024/02/13 22:48:34;;;;;;;;;;;;;;;;;;4967945;28;19985;-47
2024/02/13 22:51:00;;;;;;;;;;;;;;;;;;4966766;28;19971;-49
2024/02/13 22:53:26;;;;;;;;;;;;;;;;;;4948673;29;19938;-49
2024/02/13 22:55:52;;;;;;;;;;;;;;;;;;4951146;28;20009;-48